createdAt,value
2022-11-05T00:02:00.077Z,22.77
2022-11-05T00:04:45.110Z,22.70
2022-11-05T00:07:40.598Z,22.40
2022-11-05T00:10:16.506Z,24.15
2022-11-05T00:13:01.500Z,23.27
2022-11-05T00:15:46.475Z,23.17
2022-11-05T00:18:13.123Z,23.80
2022-11-05T00:20:39.805Z,24.20
2022-11-05T00:23:25.168Z,24.38
2022-11-05T00:25:58.755Z,23.90
2022-11-05T00:28:26.633Z,23.35
2022-11-05T00:30:54.073Z,22.40
2022-11-05T00:33:21.001Z,23.13
2022-11-05T00:35:47.606Z,22.98
2022-11-05T00:38:14.230Z,23.20
2022-11-05T00:40:40.865Z,22.55
2022-11-05T00:43:26.303Z,23.13
2022-11-05T00:45:52.858Z,22.33
2022-11-05T00:48:38.066Z,22.70
2022-11-05T00:51:04.873Z,23.08
2022-11-05T00:53:31.470Z,22.75
2022-11-05T00:55:58.373Z,23.83
2022-11-05T00:58:25.019Z,23.02
2022-11-05T01:00:54.665Z,23.10
2022-11-05T01:03:30.047Z,24.05
2022-11-05T01:05:59.321Z,22.33
2022-11-05T01:08:27.689Z,23.52
2022-11-05T01:10:57.550Z,22.83
2022-11-05T01:13:33.234Z,23.67
2022-11-05T01:16:07.054Z,22.77
2022-11-05T01:18:34.014Z,23.38
2022-11-05T01:21:00.563Z,23.23
2022-11-05T01:23:28.865Z,23.75
2022-11-05T01:25:58.539Z,23.42
2022-11-05T01:28:25.178Z,23.60
2022-11-05T01:30:55.952Z,23.80
2022-11-05T01:33:22.469Z,24.17
2022-11-05T01:35:51.778Z,24.02
2022-11-05T01:38:19.410Z,23.67
2022-11-05T01:40:46.284Z,24.27
2022-11-05T01:43:23.511Z,25.90
2022-11-05T01:45:53.244Z,23.35
2022-11-05T01:48:34.974Z,24.48
2022-11-05T01:51:06.630Z,24.38
2022-11-05T01:53:44.491Z,24.75
2022-11-05T01:56:17.306Z,23.70
2022-11-05T01:58:54.367Z,24.77
2022-11-05T02:01:21.092Z,25.50
2022-11-05T02:03:50.647Z,24.35
2022-11-05T02:06:17.736Z,24.83
2022-11-05T02:09:08.463Z,26.35
2022-11-05T02:11:35.248Z,26.40
2022-11-05T02:14:01.803Z,26.63
2022-11-05T02:16:46.960Z,26.63
2022-11-05T02:19:47.664Z,25.73
2022-11-05T02:22:57.925Z,26.15
2022-11-05T02:25:43.088Z,25.15
2022-11-05T02:28:51.890Z,26.25
2022-11-05T02:31:43.237Z,28.30
2022-11-05T02:34:48.036Z,27.35
2022-11-05T02:37:49.652Z,26.77
2022-11-05T02:40:34.090Z,26.88
2022-11-05T02:43:18.787Z,25.20
2022-11-05T02:45:54.463Z,26.05
2022-11-05T02:48:35.705Z,26.80
2022-11-05T02:51:09.023Z,26.30
2022-11-05T02:53:58.389Z,27.92
2022-11-05T02:56:30.545Z,27.55
2022-11-05T02:58:57.122Z,26.02
2022-11-05T03:01:23.727Z,27.73
2022-11-05T03:03:58.612Z,27.70
2022-11-05T03:06:52.067Z,27.02
2022-11-05T03:09:27.885Z,26.33
2022-11-05T03:12:30.758Z,28.75
2022-11-05T03:15:03.343Z,27.70
2022-11-05T03:17:38.773Z,27.13
2022-11-05T03:20:27.291Z,27.25
2022-11-05T03:23:14.854Z,27.67
2022-11-05T03:25:49.836Z,29.77
2022-11-05T03:28:19.966Z,27.75
2022-11-05T03:30:50.334Z,29.90
2022-11-05T03:33:25.423Z,26.02
2022-11-05T03:36:00.084Z,28.33
2022-11-05T03:38:34.906Z,27.10
2022-11-05T03:41:06.374Z,27.13
2022-11-05T03:43:37.027Z,26.33
2022-11-05T03:46:12.411Z,27.73
2022-11-05T03:48:44.352Z,26.90
2022-11-05T03:51:27.570Z,26.48
2022-11-05T03:53:57.623Z,27.08
2022-11-05T03:56:31.212Z,27.65
2022-11-05T03:59:00.562Z,27.52
2022-11-05T04:01:28.244Z,27.00
2022-11-05T04:03:55.070Z,26.73
2022-11-05T04:06:40.109Z,27.17
2022-11-05T04:09:25.634Z,27.25
2022-11-05T04:12:10.756Z,25.95
2022-11-05T04:14:37.308Z,26.55
2022-11-05T04:17:06.933Z,26.38
2022-11-05T04:19:56.234Z,24.80
2022-11-05T04:22:42.999Z,24.17
2022-11-05T04:25:10.457Z,23.20
2022-11-05T04:27:37.413Z,24.60
2022-11-05T04:30:19.909Z,24.42
2022-11-05T04:33:06.269Z,24.08
2022-11-05T04:35:36.833Z,25.67
2022-11-05T04:38:05.102Z,25.88
2022-11-05T04:40:32.099Z,25.70
2022-11-05T04:42:59.354Z,25.95
2022-11-05T04:45:28.447Z,25.75
2022-11-05T04:47:55.236Z,25.10
2022-11-05T04:50:22.230Z,25.42
2022-11-05T04:52:49.158Z,24.95
2022-11-05T04:55:16.063Z,24.90
2022-11-05T04:57:42.665Z,25.17
2022-11-05T05:00:11.432Z,23.63
2022-11-05T05:02:38.056Z,28.85
2022-11-05T05:05:05.351Z,28.65
2022-11-05T05:07:33.150Z,26.77
2022-11-05T05:10:03.594Z,27.05
2022-11-05T05:12:30.418Z,26.77
2022-11-05T05:14:56.994Z,26.95
2022-11-05T05:17:23.751Z,26.58
2022-11-05T05:20:08.963Z,25.58
2022-11-05T05:22:35.575Z,25.42
2022-11-05T05:25:02.800Z,24.15
2022-11-05T05:27:30.188Z,23.90
2022-11-05T05:29:58.031Z,25.02
2022-11-05T05:32:25.514Z,24.60
2022-11-05T05:34:53.048Z,25.02
2022-11-05T05:37:20.170Z,25.42
2022-11-05T05:39:47.881Z,25.65
2022-11-05T05:42:14.853Z,25.05
2022-11-05T05:44:41.448Z,25.00
2022-11-05T05:47:07.975Z,24.83
2022-11-05T05:49:34.690Z,25.17
2022-11-05T05:52:01.329Z,25.55
2022-11-05T05:54:32.643Z,23.38
2022-11-05T05:56:59.556Z,25.75
2022-11-05T05:59:26.170Z,25.25
2022-11-05T06:01:53.429Z,23.95
2022-11-05T06:04:20.849Z,23.42
2022-11-05T06:06:47.700Z,23.67
2022-11-05T06:09:14.929Z,23.80
2022-11-05T06:11:41.828Z,26.25
2022-11-05T06:14:13.032Z,31.15
2022-11-05T06:16:40.304Z,27.55
2022-11-05T06:19:07.729Z,23.45
2022-11-05T06:21:34.745Z,24.08
2022-11-05T06:24:04.672Z,24.38
2022-11-05T06:26:31.414Z,22.80
2022-11-05T06:28:57.990Z,22.63
2022-11-05T06:31:24.672Z,23.20
2022-11-05T06:33:51.490Z,22.92
2022-11-05T06:36:19.565Z,22.50
2022-11-05T06:38:46.558Z,21.75
2022-11-05T06:41:13.218Z,23.70
2022-11-05T06:43:40.256Z,22.00
2022-11-05T06:46:07.820Z,22.75
2022-11-05T06:48:34.612Z,21.63
2022-11-05T06:51:01.233Z,21.80
2022-11-05T06:53:29.557Z,21.33
2022-11-05T06:55:56.226Z,22.15
2022-11-05T06:58:22.813Z,21.73
2022-11-05T07:00:50.158Z,20.40
2022-11-05T07:03:16.817Z,20.27
2022-11-05T07:05:48.081Z,20.20
2022-11-05T07:08:15.458Z,19.85
2022-11-05T07:10:42.272Z,20.45
2022-11-05T07:13:09.329Z,22.27
2022-11-05T07:15:37.125Z,22.17
2022-11-05T07:18:04.606Z,21.80
2022-11-05T07:20:34.359Z,21.45
2022-11-05T07:23:12.152Z,21.20
2022-11-05T07:25:39.999Z,22.75
2022-11-05T07:28:06.973Z,23.13
2022-11-05T07:30:34.693Z,21.08
2022-11-05T07:33:01.492Z,21.40
2022-11-05T07:35:28.642Z,21.00
2022-11-05T07:37:55.863Z,21.58
2022-11-05T07:40:25.522Z,20.90
2022-11-05T07:42:57.617Z,21.63
2022-11-05T07:45:25.432Z,21.70
2022-11-05T07:47:54.821Z,19.60
2022-11-05T07:50:23.816Z,19.77
2022-11-05T07:52:50.849Z,18.42
2022-11-05T07:55:19.621Z,18.95
2022-11-05T07:57:48.534Z,19.40
2022-11-05T08:00:17.771Z,19.05
2022-11-05T08:02:44.653Z,18.58
2022-11-05T08:05:11.373Z,18.30
2022-11-05T08:07:38.038Z,18.45
2022-11-05T08:10:05.224Z,19.13
2022-11-05T08:12:32.452Z,17.88
2022-11-05T08:14:59.260Z,18.05
2022-11-05T08:17:26.114Z,18.05
2022-11-05T08:19:52.869Z,21.77
2022-11-05T08:22:19.574Z,19.40
2022-11-05T08:24:46.127Z,21.27
2022-11-05T08:27:12.779Z,20.73
2022-11-05T08:29:39.485Z,19.80
2022-11-05T08:32:06.135Z,21.08
2022-11-05T08:34:32.818Z,19.05
2022-11-05T08:37:01.373Z,19.40
2022-11-05T08:39:28.170Z,18.15
2022-11-05T08:41:54.882Z,17.48
2022-11-05T08:44:21.574Z,17.55
2022-11-05T08:46:48.460Z,17.80
2022-11-05T08:49:15.004Z,17.02
2022-11-05T08:51:43.307Z,16.10
2022-11-05T08:54:09.933Z,16.08
2022-11-05T08:56:36.731Z,16.25
2022-11-05T08:59:03.373Z,15.98
2022-11-05T09:01:30.259Z,15.32
2022-11-05T09:03:56.939Z,13.82
2022-11-05T09:06:23.557Z,14.45
2022-11-05T09:08:50.075Z,14.88
2022-11-05T09:11:18.197Z,14.95
2022-11-05T09:13:44.832Z,14.95
2022-11-05T09:16:23.159Z,14.35
2022-11-05T09:18:50.357Z,14.73
2022-11-05T09:21:18.561Z,14.80
2022-11-05T09:23:46.793Z,15.07
2022-11-05T09:26:14.292Z,15.27
2022-11-05T09:28:41.142Z,13.38
2022-11-05T09:31:09.463Z,14.15
2022-11-05T09:33:37.999Z,14.30
2022-11-05T09:36:05.473Z,14.32
2022-11-05T09:38:33.153Z,13.43
2022-11-05T09:41:20.092Z,13.68
2022-11-05T09:43:53.888Z,13.55
2022-11-05T09:46:24.527Z,15.27
2022-11-05T09:49:05.985Z,12.55
2022-11-05T09:51:33.409Z,14.05
2022-11-05T09:54:00.681Z,15.00
2022-11-05T09:56:30.953Z,14.63
2022-11-05T09:59:03.750Z,13.65
2022-11-05T10:01:38.427Z,13.18
2022-11-05T10:04:14.329Z,10.07
2022-11-05T10:06:48.730Z,10.30
2022-11-05T10:09:19.730Z,11.15
2022-11-05T10:11:57.274Z,12.00
2022-11-05T10:14:29.278Z,12.52
2022-11-05T10:17:03.791Z,10.85
2022-11-05T10:20:02.423Z,12.02
2022-11-05T10:22:29.069Z,11.05
2022-11-05T10:24:56.003Z,10.70
2022-11-05T10:27:27.987Z,10.57
2022-11-05T10:29:55.114Z,9.85
2022-11-05T10:32:32.226Z,11.05
2022-11-05T10:35:01.210Z,10.93
2022-11-05T10:37:29.045Z,11.48
2022-11-05T10:39:55.773Z,11.38
2022-11-05T10:42:57.253Z,11.00
2022-11-05T10:45:50.418Z,11.05
2022-11-05T10:48:19.721Z,10.77
2022-11-05T10:50:46.519Z,10.75
2022-11-05T10:53:35.549Z,10.85
2022-11-05T10:56:02.605Z,10.10
2022-11-05T10:58:32.075Z,10.38
2022-11-05T11:00:58.812Z,11.38
2022-11-05T11:03:37.603Z,11.57
2022-11-05T11:06:19.784Z,10.20
2022-11-05T11:08:48.648Z,10.98
2022-11-05T11:11:32.118Z,10.10
2022-11-05T11:14:12.275Z,11.23
2022-11-05T11:16:41.742Z,10.60
2022-11-05T11:19:20.411Z,10.23
2022-11-05T11:21:54.535Z,10.63
2022-11-05T11:24:23.309Z,10.13
2022-11-05T11:26:49.901Z,9.38
2022-11-05T11:29:25.615Z,9.45
2022-11-05T11:31:59.610Z,10.88
2022-11-05T11:34:35.347Z,9.25
2022-11-05T11:37:15.323Z,9.15
2022-11-05T11:39:49.745Z,9.35
2022-11-05T11:42:30.257Z,9.30
2022-11-05T11:44:59.979Z,10.02
2022-11-05T11:47:29.175Z,9.32
2022-11-05T11:49:58.198Z,9.88
2022-11-05T11:52:35.879Z,10.82
2022-11-05T11:55:11.586Z,10.30
2022-11-05T11:57:45.619Z,9.77
2022-11-05T12:00:13.316Z,9.80
2022-11-05T12:02:45.890Z,10.00
2022-11-05T12:05:12.528Z,9.43
2022-11-05T12:07:49.447Z,9.50
2022-11-05T12:10:23.591Z,9.50
2022-11-05T12:12:56.334Z,10.63
2022-11-05T12:15:55.507Z,10.27
2022-11-05T12:18:26.170Z,11.18
2022-11-05T12:21:03.451Z,11.02
2022-11-05T12:23:35.930Z,10.55
2022-11-05T12:26:20.784Z,10.13
2022-11-05T12:29:16.685Z,10.43
2022-11-05T12:31:52.354Z,9.25
2022-11-05T12:34:44.703Z,8.68
2022-11-05T12:37:23.392Z,9.23
2022-11-05T12:40:17.674Z,9.68
2022-11-05T12:42:47.203Z,10.77
2022-11-05T12:45:41.773Z,10.82
2022-11-05T12:48:44.348Z,10.45
2022-11-05T12:51:14.070Z,11.07
2022-11-05T12:53:50.844Z,11.05
2022-11-05T12:56:31.081Z,10.48
2022-11-05T12:59:06.394Z,10.02
2022-11-05T13:01:39.085Z,9.65
2022-11-05T13:04:15.722Z,9.30
2022-11-05T13:06:47.645Z,9.30
2022-11-05T13:09:21.801Z,9.82
2022-11-05T13:11:59.583Z,10.40
2022-11-05T13:14:42.506Z,11.45
2022-11-05T13:17:23.551Z,10.18
2022-11-05T13:19:57.114Z,10.88
2022-11-05T13:22:35.774Z,10.25
2022-11-05T13:25:23.350Z,11.40
2022-11-05T13:28:29.096Z,11.25
2022-11-05T13:31:01.555Z,11.18
2022-11-05T13:33:33.435Z,10.75
2022-11-05T13:36:30.872Z,10.95
2022-11-05T13:39:09.405Z,10.73
2022-11-05T13:42:14.513Z,10.18
2022-11-05T13:44:48.234Z,10.10
2022-11-05T13:47:14.742Z,10.25
2022-11-05T13:49:44.204Z,10.27
2022-11-05T13:52:34.641Z,10.73
2022-11-05T13:55:18.777Z,9.00
2022-11-05T13:58:14.494Z,10.13
2022-11-05T14:01:07.659Z,9.63
2022-11-05T14:03:34.374Z,9.45
2022-11-05T14:06:07.689Z,9.93
2022-11-05T14:08:40.244Z,10.60
2022-11-05T14:11:24.103Z,10.25
2022-11-05T14:13:56.415Z,9.40
2022-11-05T14:16:26.332Z,9.32
2022-11-05T14:19:17.939Z,8.82
2022-11-05T14:21:51.803Z,11.00
2022-11-05T14:24:21.313Z,10.45
2022-11-05T14:27:02.810Z,10.45
2022-11-05T14:29:44.534Z,10.40
2022-11-05T14:32:17.221Z,11.25
2022-11-05T14:34:47.242Z,12.00
2022-11-05T14:37:13.776Z,11.93
2022-11-05T14:39:41.235Z,10.75
2022-11-05T14:42:16.510Z,11.23
2022-11-05T14:45:14.147Z,11.15
2022-11-05T14:47:44.725Z,11.50
2022-11-05T14:50:30.207Z,12.63
2022-11-05T14:52:59.793Z,11.38
2022-11-05T14:55:36.625Z,11.93
2022-11-05T14:58:42.901Z,10.75
2022-11-05T15:01:32.607Z,11.27
2022-11-05T15:04:32.343Z,11.55
2022-11-05T15:07:02.012Z,12.80
2022-11-05T15:09:49.019Z,11.57
2022-11-05T15:12:25.265Z,12.02
2022-11-05T15:15:22.988Z,12.88
2022-11-05T15:18:03.790Z,13.65
2022-11-05T15:20:41.531Z,13.63
2022-11-05T15:23:13.421Z,14.27
2022-11-05T15:26:00.161Z,14.60
2022-11-05T15:28:37.929Z,14.45
2022-11-05T15:31:13.307Z,13.20
2022-11-05T15:33:45.252Z,14.70
2022-11-05T15:36:25.747Z,14.75
2022-11-05T15:39:23.030Z,15.13
2022-11-05T15:41:40.286Z,14.38
2022-11-05T15:44:30.629Z,14.63
2022-11-05T15:47:30.708Z,14.70
2022-11-05T15:49:58.768Z,14.85
2022-11-05T15:52:42.335Z,15.90
2022-11-05T15:55:11.950Z,14.30
2022-11-05T15:57:47.833Z,14.30
2022-11-05T16:00:22.030Z,15.05
2022-11-05T16:03:02.233Z,15.27
2022-11-05T16:05:32.395Z,16.30
2022-11-05T16:08:00.851Z,16.08
2022-11-05T16:10:34.645Z,14.60
2022-11-05T16:13:28.873Z,15.60
2022-11-05T16:15:57.726Z,15.55
2022-11-05T16:18:30.447Z,14.73
2022-11-05T16:21:08.188Z,15.60
2022-11-05T16:23:45.169Z,14.88
2022-11-05T16:29:53.193Z,15.50
2022-11-05T16:32:29.915Z,15.00
2022-11-05T16:35:03.597Z,15.75
2022-11-05T16:37:41.238Z,15.77
2022-11-05T16:40:18.224Z,14.93
2022-11-05T16:42:48.569Z,15.07
2022-11-05T16:45:17.428Z,15.98
2022-11-05T16:47:45.128Z,16.10
2022-11-05T16:50:32.402Z,15.63
2022-11-05T16:52:59.363Z,15.75
2022-11-05T16:55:26.070Z,16.85
2022-11-05T16:57:54.711Z,16.02
2022-11-05T17:00:22.681Z,16.13
2022-11-05T17:02:50.222Z,16.70
2022-11-05T17:05:28.832Z,16.02
2022-11-05T17:07:56.406Z,15.95
2022-11-05T17:10:24.921Z,15.15
2022-11-05T17:12:51.994Z,15.90
2022-11-05T17:15:36.751Z,14.85
2022-11-05T17:18:05.494Z,15.73
2022-11-05T17:20:48.604Z,14.77
2022-11-05T17:23:18.638Z,14.60
2022-11-05T17:25:48.534Z,14.65
2022-11-05T17:28:16.578Z,15.52
2022-11-05T17:30:47.875Z,14.48
2022-11-05T17:33:18.462Z,14.35
2022-11-05T17:35:45.374Z,13.68
2022-11-05T17:38:12.807Z,14.20
2022-11-05T17:40:39.993Z,13.77
2022-11-05T17:43:07.385Z,13.68
2022-11-05T17:45:34.065Z,17.85
2022-11-05T17:48:03.346Z,22.25
2022-11-05T17:50:30.252Z,23.17
2022-11-05T17:52:56.877Z,21.30
2022-11-05T17:55:23.531Z,24.45
2022-11-05T17:57:51.862Z,23.20
2022-11-05T18:00:22.441Z,22.45
2022-11-05T18:02:50.411Z,22.55
2022-11-05T18:05:18.072Z,21.80
2022-11-05T18:07:45.752Z,22.20
2022-11-05T18:10:13.102Z,16.52
2022-11-05T18:12:40.672Z,19.33
2022-11-05T18:15:08.389Z,20.40
2022-11-05T18:17:35.021Z,19.70
2022-11-05T18:20:01.993Z,20.42
2022-11-05T18:22:28.666Z,22.30
2022-11-05T18:24:55.351Z,18.42
2022-11-05T18:27:24.771Z,18.98
2022-11-05T18:29:51.380Z,18.13
2022-11-05T18:32:18.061Z,20.58
2022-11-05T18:34:44.731Z,20.55
2022-11-05T18:37:11.320Z,22.33
2022-11-05T18:39:38.259Z,21.27
2022-11-05T18:42:05.120Z,21.98
2022-11-05T18:44:37.799Z,18.77
2022-11-05T18:47:06.934Z,19.63
2022-11-05T18:49:34.024Z,17.92
2022-11-05T18:52:00.665Z,17.90
2022-11-05T18:54:27.339Z,18.50
2022-11-05T18:56:54.042Z,18.52
2022-11-05T18:59:39.148Z,18.23
2022-11-05T19:02:08.706Z,17.40
2022-11-05T19:04:36.689Z,18.83
2022-11-05T19:07:05.485Z,21.25
2022-11-05T19:09:36.522Z,23.17
2022-11-05T19:12:03.876Z,23.08
2022-11-05T19:14:31.050Z,24.45
2022-11-05T19:16:58.890Z,24.30
2022-11-05T19:19:26.243Z,19.55
2022-11-05T19:21:53.305Z,21.95
2022-11-05T19:24:20.367Z,22.13
2022-11-05T19:26:47.650Z,20.95
2022-11-05T19:29:15.270Z,19.23
2022-11-05T19:31:42.130Z,16.52
2022-11-05T19:34:08.866Z,17.27
2022-11-05T19:36:35.394Z,17.52
2022-11-05T19:39:09.101Z,17.08
2022-11-05T19:41:35.965Z,17.88
2022-11-05T19:44:02.897Z,17.23
2022-11-05T19:46:31.205Z,17.92
2022-11-05T19:48:59.163Z,16.80
2022-11-05T19:51:27.881Z,16.80
2022-11-05T19:53:55.374Z,16.48
2022-11-05T19:56:28.265Z,17.45
2022-11-05T19:58:54.998Z,18.92
2022-11-05T20:01:23.148Z,19.05
2022-11-05T20:03:50.443Z,18.85
2022-11-05T20:06:21.139Z,18.30
2022-11-05T20:09:15.172Z,19.50
2022-11-05T20:11:38.014Z,18.63
2022-11-05T20:14:05.114Z,18.90
2022-11-05T20:16:38.101Z,20.42
2022-11-05T20:19:07.036Z,22.38
2022-11-05T20:21:34.743Z,23.05
2022-11-05T20:24:02.738Z,25.17
2022-11-05T20:26:29.786Z,23.08
2022-11-05T20:28:56.485Z,27.13
2022-11-05T20:31:23.193Z,27.45
2022-11-05T20:33:49.834Z,26.20
2022-11-05T20:36:18.465Z,26.90
2022-11-05T20:38:53.373Z,27.15
2022-11-05T20:41:19.997Z,27.70
2022-11-05T20:43:47.994Z,30.05
2022-11-05T20:46:17.924Z,31.50
2022-11-05T20:48:45.391Z,29.40
2022-11-05T20:51:17.727Z,30.05
2022-11-05T20:53:46.041Z,30.42
2022-11-05T20:56:32.868Z,30.10
2022-11-05T20:59:00.560Z,28.17
2022-11-05T21:01:30.164Z,31.55
2022-11-05T21:03:57.177Z,31.75
2022-11-05T21:06:24.129Z,31.10
2022-11-05T21:08:52.022Z,32.25
2022-11-05T21:11:19.508Z,32.35
2022-11-05T21:13:46.505Z,32.30
2022-11-05T21:16:18.023Z,36.13
2022-11-05T21:18:46.224Z,36.75
2022-11-05T21:21:17.224Z,37.45
2022-11-05T21:23:43.968Z,37.45
2022-11-05T21:26:13.325Z,38.80
2022-11-05T21:28:42.142Z,36.88
2022-11-05T21:31:09.740Z,34.92
2022-11-05T21:33:36.791Z,37.10
2022-11-05T21:36:12.011Z,34.42
2022-11-05T21:38:39.627Z,34.38
2022-11-05T21:41:07.834Z,29.60
2022-11-05T21:43:34.809Z,30.25
2022-11-05T21:46:02.844Z,29.48
2022-11-05T21:48:30.272Z,30.88
2022-11-05T21:51:15.627Z,26.25
2022-11-05T21:54:00.803Z,28.90
2022-11-05T21:56:46.978Z,29.00
2022-11-05T21:59:35.541Z,29.52
2022-11-05T22:02:02.702Z,28.40
2022-11-05T22:04:35.823Z,28.65
2022-11-05T22:07:02.930Z,27.20
2022-11-05T22:09:29.773Z,27.85
2022-11-05T22:11:56.418Z,26.35
2022-11-05T22:14:24.119Z,25.05
2022-11-05T22:16:51.010Z,24.75
2022-11-05T22:19:17.933Z,23.45
2022-11-05T22:21:44.672Z,24.63
2022-11-05T22:24:11.785Z,23.58
2022-11-05T22:26:39.106Z,23.45
2022-11-05T22:29:06.589Z,22.85
2022-11-05T22:31:36.164Z,22.92
2022-11-05T22:34:04.361Z,22.63
2022-11-05T22:36:32.163Z,23.98
2022-11-05T22:38:58.773Z,22.45
2022-11-05T22:41:25.433Z,22.95
2022-11-05T22:43:52.076Z,21.38
2022-11-05T22:46:22.341Z,23.45
2022-11-05T22:48:49.563Z,21.90
2022-11-05T22:51:22.745Z,23.13
2022-11-05T22:53:49.981Z,24.83
2022-11-05T22:56:20.602Z,25.35
2022-11-05T22:58:48.205Z,23.73
2022-11-05T23:01:15.911Z,24.23
2022-11-05T23:03:44.404Z,23.83
2022-11-05T23:06:49.737Z,24.25
2022-11-05T23:09:37.231Z,24.23
2022-11-05T23:12:06.801Z,24.17
2022-11-05T23:14:35.589Z,24.95
2022-11-05T23:17:21.307Z,25.13
2022-11-05T23:20:06.217Z,24.35
2022-11-05T23:22:51.361Z,25.38
2022-11-05T23:25:20.693Z,25.10
2022-11-05T23:27:49.900Z,25.80
2022-11-05T23:30:20.072Z,24.67
2022-11-05T23:32:47.737Z,25.23
2022-11-05T23:35:14.475Z,28.20
2022-11-05T23:37:59.822Z,25.73
2022-11-05T23:40:29.126Z,28.80
2022-11-05T23:43:14.616Z,28.80
2022-11-05T23:46:02.921Z,27.70
2022-11-05T23:48:36.115Z,25.67
2022-11-05T23:51:10.447Z,25.25
2022-11-05T23:53:40.338Z,26.63
2022-11-05T23:56:13.670Z,25.77
2022-11-05T23:58:41.353Z,26.73
